createdAt,value
2018-08-02T00:00:29.089Z,23.35
2018-08-02T00:02:59.573Z,23.42
2018-08-02T00:05:28.820Z,23.27
2018-08-02T00:07:57.627Z,23.25
2018-08-02T00:10:26.726Z,23.27
2018-08-02T00:12:55.093Z,23.29
2018-08-02T00:15:24.466Z,23.38
2018-08-02T00:17:53.693Z,23.40
2018-08-02T00:20:22.083Z,23.42
2018-08-02T00:22:50.417Z,23.40
2018-08-02T00:25:18.769Z,23.45
2018-08-02T00:27:47.142Z,23.51
2018-08-02T00:30:15.509Z,23.65
2018-08-02T00:32:43.842Z,23.47
2018-08-02T00:35:12.210Z,23.51
2018-08-02T00:37:40.553Z,23.43
2018-08-02T00:40:09.909Z,23.25
2018-08-02T00:42:38.262Z,23.28
2018-08-02T00:45:07.996Z,23.14
2018-08-02T00:47:37.837Z,23.16
2018-08-02T00:50:07.741Z,23.12
2018-08-02T00:52:38.337Z,23.04
2018-08-02T00:55:08.793Z,22.96
2018-08-02T00:57:38.164Z,22.87
2018-08-02T01:00:09.021Z,22.89
2018-08-02T01:02:38.294Z,22.86
2018-08-02T01:05:07.590Z,22.83
2018-08-02T01:07:36.597Z,22.90
2018-08-02T01:10:06.233Z,22.91
2018-08-02T01:12:37.053Z,22.91
2018-08-02T01:15:06.645Z,22.98
2018-08-02T01:17:36.594Z,23.08
2018-08-02T01:20:06.667Z,23.05
2018-08-02T01:22:36.717Z,23.04
2018-08-02T01:25:07.364Z,23.06
2018-08-02T01:27:37.701Z,23.00
2018-08-02T01:30:06.163Z,23.02
2018-08-02T01:32:34.590Z,23.06
2018-08-02T01:35:02.902Z,23.05
2018-08-02T01:37:31.538Z,23.11
2018-08-02T01:39:59.884Z,23.10
2018-08-02T01:42:30.573Z,23.06
2018-08-02T01:44:58.939Z,23.07
2018-08-02T01:47:27.671Z,23.02
2018-08-02T01:49:57.603Z,23.02
2018-08-02T01:52:26.620Z,23.15
2018-08-02T01:54:54.961Z,23.12
2018-08-02T01:57:24.308Z,23.18
2018-08-02T01:59:53.724Z,23.16
2018-08-02T02:02:22.749Z,22.98
2018-08-02T02:04:51.105Z,22.89
2018-08-02T02:07:19.450Z,22.81
2018-08-02T02:09:47.788Z,22.82
2018-08-02T02:12:17.265Z,22.78
2018-08-02T02:14:46.789Z,22.80
2018-08-02T02:17:16.209Z,22.89
2018-08-02T02:19:44.565Z,22.87
2018-08-02T02:22:12.902Z,22.78
2018-08-02T02:24:41.250Z,22.76
2018-08-02T02:27:09.882Z,22.85
2018-08-02T02:29:39.234Z,22.74
2018-08-02T02:32:08.590Z,22.72
2018-08-02T02:34:39.414Z,22.69
2018-08-02T02:37:08.852Z,22.79
2018-08-02T02:39:38.422Z,22.90
2018-08-02T02:42:09.037Z,22.80
2018-08-02T02:44:38.249Z,22.84
2018-08-02T02:47:08.125Z,22.70
2018-08-02T02:49:37.677Z,22.77
2018-08-02T02:52:07.502Z,22.88
2018-08-02T02:54:37.718Z,22.80
2018-08-02T02:57:06.549Z,22.82
2018-08-02T02:59:37.316Z,22.87
2018-08-02T03:02:08.219Z,22.90
2018-08-02T03:04:36.908Z,22.91
2018-08-02T03:07:05.304Z,22.92
2018-08-02T03:09:33.652Z,22.79
2018-08-02T03:12:02.000Z,22.85
2018-08-02T03:14:30.385Z,22.87
2018-08-02T03:17:00.563Z,22.83
2018-08-02T03:19:29.845Z,22.90
2018-08-02T03:21:59.317Z,23.12
2018-08-02T03:24:28.760Z,23.04
2018-08-02T03:26:57.789Z,22.91
2018-08-02T03:29:26.187Z,22.84
2018-08-02T03:31:54.541Z,22.95
2018-08-02T03:34:22.981Z,23.06
2018-08-02T03:36:51.357Z,22.95
2018-08-02T03:39:20.602Z,22.90
2018-08-02T03:41:48.945Z,23.01
2018-08-02T03:44:17.403Z,22.98
2018-08-02T03:46:45.774Z,22.86
2018-08-02T03:49:15.126Z,22.82
2018-08-02T03:51:43.521Z,22.67
2018-08-02T03:54:12.861Z,22.65
2018-08-02T03:56:42.225Z,22.75
2018-08-02T03:59:10.566Z,22.70
2018-08-02T04:01:38.916Z,22.69
2018-08-02T04:04:08.402Z,22.66
2018-08-02T04:06:37.821Z,22.61
2018-08-02T04:09:10.525Z,22.58
2018-08-02T04:11:38.911Z,22.55
2018-08-02T04:14:08.310Z,22.59
2018-08-02T04:16:37.716Z,22.61
2018-08-02T04:19:08.093Z,22.67
2018-08-02T04:21:37.498Z,22.62
2018-08-02T04:24:06.721Z,22.62
2018-08-02T04:26:35.055Z,22.57
2018-08-02T04:29:04.440Z,22.55
2018-08-02T04:31:32.791Z,22.78
2018-08-02T04:34:01.229Z,22.71
2018-08-02T04:36:30.414Z,22.68
2018-08-02T04:38:59.684Z,22.74
2018-08-02T04:41:28.869Z,22.77
2018-08-02T04:43:57.867Z,22.83
2018-08-02T04:46:26.298Z,22.89
2018-08-02T04:48:54.714Z,22.90
2018-08-02T04:51:23.946Z,22.95
2018-08-02T04:53:52.317Z,23.07
2018-08-02T04:56:20.655Z,23.07
2018-08-02T04:58:50.041Z,23.15
2018-08-02T05:01:18.643Z,23.18
2018-08-02T05:03:46.986Z,23.23
2018-08-02T05:06:15.348Z,23.24
2018-08-02T05:08:43.702Z,23.50
2018-08-02T05:11:12.107Z,23.55
2018-08-02T05:13:40.465Z,23.62
2018-08-02T05:16:08.826Z,23.59
2018-08-02T05:18:37.832Z,23.55
2018-08-02T05:21:06.223Z,23.58
2018-08-02T05:23:34.667Z,23.59
2018-08-02T05:26:03.008Z,23.57
2018-08-02T05:28:31.361Z,23.64
2018-08-02T05:30:59.720Z,23.59
2018-08-02T05:33:29.506Z,23.70
2018-08-02T05:36:00.634Z,23.77
2018-08-02T05:38:29.545Z,23.76
2018-08-02T05:40:58.613Z,23.82
2018-08-02T05:43:28.233Z,23.91
2018-08-02T05:45:57.918Z,23.86
2018-08-02T05:48:27.822Z,23.84
2018-08-02T05:50:57.734Z,24.03
2018-08-02T05:53:27.177Z,24.05
2018-08-02T05:55:55.565Z,24.19
2018-08-02T05:58:23.948Z,24.30
2018-08-02T06:00:52.281Z,24.44
2018-08-02T06:03:21.664Z,24.70
2018-08-02T06:05:51.019Z,24.86
2018-08-02T06:08:19.401Z,25.11
2018-08-02T06:10:47.820Z,25.23
2018-08-02T06:13:16.205Z,25.19
2018-08-02T06:15:44.915Z,25.22
2018-08-02T06:18:13.302Z,25.33
2018-08-02T06:20:41.722Z,25.34
2018-08-02T06:23:10.070Z,25.51
2018-08-02T06:25:38.510Z,25.59
2018-08-02T06:28:07.964Z,25.64
2018-08-02T06:30:38.838Z,25.66
2018-08-02T06:33:08.061Z,25.58
2018-08-02T06:35:37.557Z,25.54
2018-08-02T06:38:06.588Z,25.55
2018-08-02T06:40:36.597Z,25.55
2018-08-02T06:43:06.694Z,25.60
2018-08-02T06:45:37.725Z,25.72
2018-08-02T06:48:05.636Z,25.85
2018-08-02T06:50:33.983Z,26.01
2018-08-02T06:53:02.333Z,25.86
2018-08-02T06:55:30.767Z,25.76
2018-08-02T06:57:59.109Z,25.79
2018-08-02T07:00:29.475Z,25.87
2018-08-02T07:02:58.767Z,25.91
2018-08-02T07:05:28.071Z,25.93
2018-08-02T07:07:56.893Z,25.74
2018-08-02T07:10:25.240Z,25.78
2018-08-02T07:12:53.602Z,25.89
2018-08-02T07:15:21.956Z,25.78
2018-08-02T07:17:50.315Z,25.80
2018-08-02T07:20:19.385Z,25.77
2018-08-02T07:22:47.738Z,25.79
2018-08-02T07:25:16.076Z,25.84
2018-08-02T07:27:44.409Z,25.83
2018-08-02T07:30:12.767Z,25.79
2018-08-02T07:32:41.117Z,25.80
2018-08-02T07:35:09.573Z,26.00
2018-08-02T07:37:38.725Z,26.03
2018-08-02T07:40:08.074Z,26.27
2018-08-02T07:42:37.462Z,26.41
2018-08-02T07:45:07.789Z,26.32
2018-08-02T07:47:36.765Z,26.46
2018-08-02T07:50:06.425Z,26.42
2018-08-02T07:52:37.353Z,26.61
2018-08-02T07:55:08.089Z,26.45
2018-08-02T07:57:38.880Z,26.56
2018-08-02T08:00:08.852Z,26.49
2018-08-02T08:02:39.405Z,26.50
2018-08-02T08:05:08.401Z,26.43
2018-08-02T08:07:37.744Z,26.59
2018-08-02T08:10:06.618Z,26.72
2018-08-02T08:12:35.566Z,26.82
2018-08-02T08:15:03.994Z,26.89
2018-08-02T08:17:33.207Z,26.91
2018-08-02T08:20:02.554Z,26.88
2018-08-02T08:22:31.829Z,26.81
2018-08-02T08:25:01.120Z,26.78
2018-08-02T08:27:31.051Z,26.65
2018-08-02T08:30:00.936Z,26.48
2018-08-02T08:32:29.983Z,26.58
2018-08-02T08:34:59.438Z,26.48
2018-08-02T08:37:29.838Z,26.49
2018-08-02T08:39:59.563Z,26.81
2018-08-02T08:42:28.750Z,27.29
2018-08-02T08:44:58.273Z,27.20
2018-08-02T08:47:27.001Z,27.16
2018-08-02T08:49:55.321Z,27.16
2018-08-02T08:52:23.791Z,27.05
2018-08-02T08:54:52.568Z,26.86
2018-08-02T08:57:20.941Z,27.05
2018-08-02T08:59:51.461Z,27.14
2018-08-02T09:02:19.802Z,27.32
2018-08-02T09:04:48.157Z,27.43
2018-08-02T09:07:17.200Z,27.62
2018-08-02T09:09:45.658Z,27.63
2018-08-02T09:12:14.413Z,27.69
2018-08-02T09:14:43.622Z,27.69
2018-08-02T09:17:11.997Z,27.74
2018-08-02T09:19:40.381Z,27.77
2018-08-02T09:22:08.774Z,27.78
2018-08-02T09:24:38.285Z,27.72
2018-08-02T09:27:08.129Z,27.66
2018-08-02T09:29:38.109Z,27.73
2018-08-02T09:32:08.419Z,27.62
2018-08-02T09:34:38.317Z,27.48
2018-08-02T09:37:08.658Z,27.47
2018-08-02T09:39:39.409Z,27.60
2018-08-02T09:42:08.487Z,27.63
2018-08-02T09:44:37.767Z,27.67
2018-08-02T09:47:06.611Z,27.73
2018-08-02T09:49:35.671Z,27.80
2018-08-02T09:52:05.963Z,27.90
2018-08-02T09:54:35.168Z,28.02
2018-08-02T09:57:03.522Z,28.17
2018-08-02T09:59:31.854Z,28.31
2018-08-02T10:02:05.686Z,28.49
2018-08-02T10:04:36.690Z,28.64
2018-08-02T10:07:07.029Z,28.91
2018-08-02T10:09:36.549Z,28.90
2018-08-02T10:12:05.530Z,29.15
2018-08-02T10:14:33.861Z,29.26
2018-08-02T10:17:02.246Z,29.38
2018-08-02T10:19:30.581Z,29.52
2018-08-02T10:21:59.889Z,29.76
2018-08-02T10:24:30.338Z,29.91
2018-08-02T10:26:59.716Z,30.32
2018-08-02T10:29:29.594Z,30.59
2018-08-02T10:31:59.127Z,30.64
2018-08-02T10:34:27.950Z,30.78
2018-08-02T10:36:57.017Z,30.86
2018-08-02T10:39:27.176Z,31.07
2018-08-02T10:41:55.535Z,31.15
2018-08-02T10:44:24.888Z,31.20
2018-08-02T10:46:53.574Z,31.34
2018-08-02T10:49:23.253Z,31.52
2018-08-02T10:51:51.769Z,31.76
2018-08-02T10:54:21.206Z,31.81
2018-08-02T10:56:50.574Z,32.00
2018-08-02T10:59:18.958Z,32.15
2018-08-02T11:01:47.355Z,32.17
2018-08-02T11:04:15.691Z,32.29
2018-08-02T11:06:44.050Z,32.32
2018-08-02T11:09:12.415Z,32.02
2018-08-02T11:11:41.662Z,32.15
2018-08-02T11:14:11.266Z,32.02
2018-08-02T11:16:40.781Z,32.09
2018-08-02T11:19:09.800Z,32.19
2018-08-02T11:21:38.379Z,31.98
2018-08-02T11:24:09.141Z,31.78
2018-08-02T11:26:38.543Z,31.81
2018-08-02T11:29:08.098Z,31.73
2018-08-02T11:31:40.420Z,31.76
2018-08-02T11:34:09.692Z,31.53
2018-08-02T11:36:39.039Z,31.46
2018-08-02T11:39:09.521Z,31.61
2018-08-02T11:41:39.026Z,31.42
2018-08-02T11:44:08.425Z,31.40
2018-08-02T11:46:37.952Z,31.46
2018-08-02T11:49:06.340Z,31.62
2018-08-02T11:51:34.681Z,31.66
2018-08-02T11:54:04.080Z,31.78
2018-08-02T11:56:33.411Z,31.68
2018-08-02T11:59:01.674Z,31.72
2018-08-02T12:01:30.025Z,31.64
2018-08-02T12:04:00.841Z,31.59
2018-08-02T12:06:30.075Z,31.72
2018-08-02T12:08:59.089Z,31.75
2018-08-02T12:11:28.066Z,31.66
2018-08-02T12:13:57.325Z,31.79
2018-08-02T12:16:27.093Z,31.63
2018-08-02T12:18:55.596Z,31.75
2018-08-02T12:21:24.070Z,31.95
2018-08-02T12:23:52.488Z,32.09
2018-08-02T12:26:20.852Z,32.17
2018-08-02T12:28:49.194Z,32.28
2018-08-02T12:31:17.537Z,32.42
2018-08-02T12:33:45.908Z,32.40
2018-08-02T12:36:14.243Z,32.25
2018-08-02T12:38:42.586Z,32.45
2018-08-02T12:41:10.941Z,32.47
2018-08-02T12:43:39.312Z,32.54
2018-08-02T12:46:08.192Z,32.43
2018-08-02T12:48:38.516Z,32.38
2018-08-02T12:51:09.485Z,32.35
2018-08-02T12:53:38.914Z,32.13
2018-08-02T12:56:08.368Z,32.00
2018-08-02T12:58:37.810Z,31.83
2018-08-02T13:01:06.611Z,31.97
2018-08-02T13:03:35.761Z,32.00
2018-08-02T13:06:04.077Z,32.12
2018-08-02T13:08:33.503Z,32.10
2018-08-02T13:11:03.633Z,32.07
2018-08-02T13:13:38.070Z,31.90
2018-08-02T13:16:07.521Z,31.87
2018-08-02T13:18:36.880Z,31.92
2018-08-02T13:21:05.886Z,31.95
2018-08-02T13:23:35.256Z,31.90
2018-08-02T13:26:04.244Z,31.86
2018-08-02T13:28:32.606Z,31.88
2018-08-02T13:31:00.957Z,31.93
2018-08-02T13:33:29.378Z,31.90
2018-08-02T13:35:58.132Z,31.75
2018-08-02T13:38:27.048Z,31.88
2018-08-02T13:40:55.393Z,31.92
2018-08-02T13:43:23.757Z,31.88
2018-08-02T13:45:52.161Z,31.77
2018-08-02T13:48:20.501Z,31.62
2018-08-02T13:50:48.888Z,31.72
2018-08-02T13:53:17.271Z,31.72
2018-08-02T13:55:45.606Z,31.76
2018-08-02T13:58:13.962Z,31.73
2018-08-02T14:00:42.339Z,31.79
2018-08-02T14:03:10.701Z,31.89
2018-08-02T14:05:39.044Z,31.85
2018-08-02T14:08:07.402Z,31.79
2018-08-02T14:10:36.946Z,31.74
2018-08-02T14:13:06.922Z,31.79
2018-08-02T14:15:35.802Z,31.88
2018-08-02T14:18:04.877Z,31.78
2018-08-02T14:20:33.233Z,31.89
2018-08-02T14:23:01.585Z,31.94
2018-08-02T14:25:29.938Z,32.03
2018-08-02T14:27:58.973Z,31.87
2018-08-02T14:30:29.324Z,31.96
2018-08-02T14:32:58.099Z,32.02
2018-08-02T14:35:27.035Z,31.94
2018-08-02T14:37:55.384Z,31.95
2018-08-02T14:40:24.615Z,32.07
2018-08-02T14:42:53.002Z,32.02
2018-08-02T14:45:21.605Z,32.05
2018-08-02T14:47:49.961Z,32.01
2018-08-02T14:50:18.319Z,31.93
2018-08-02T14:52:46.658Z,31.92
2018-08-02T14:55:15.322Z,31.89
2018-08-02T14:57:43.671Z,31.93
2018-08-02T15:00:12.088Z,32.07
2018-08-02T15:02:40.536Z,32.35
2018-08-02T15:05:08.904Z,32.81
2018-08-02T15:07:38.137Z,33.19
2018-08-02T15:10:07.765Z,33.80
2018-08-02T15:12:37.039Z,34.46
2018-08-02T15:15:06.416Z,35.16
2018-08-02T15:17:37.004Z,35.79
2018-08-02T15:20:06.937Z,36.30
2018-08-02T15:22:35.833Z,36.55
2018-08-02T15:25:05.443Z,37.09
2018-08-02T15:27:35.480Z,37.68
2018-08-02T15:30:06.745Z,37.47
2018-08-02T15:32:36.918Z,37.77
2018-08-02T15:35:07.226Z,38.02
2018-08-02T15:37:37.089Z,37.12
2018-08-02T15:40:07.673Z,37.72
2018-08-02T15:42:38.322Z,37.55
2018-08-02T15:45:09.318Z,37.87
2018-08-02T15:47:39.953Z,37.98
2018-08-02T15:50:09.360Z,37.73
2018-08-02T15:52:38.722Z,37.91
2018-08-02T15:55:08.004Z,37.86
2018-08-02T15:57:37.635Z,37.25
2018-08-02T16:00:07.080Z,36.41
2018-08-02T16:02:36.507Z,35.44
2018-08-02T16:05:06.234Z,34.61
2018-08-02T16:07:35.341Z,34.19
2018-08-02T16:10:04.751Z,33.58
2018-08-02T16:12:33.103Z,33.26
2018-08-02T16:15:01.482Z,32.84
2018-08-02T16:17:31.924Z,32.71
2018-08-02T16:20:00.485Z,32.39
2018-08-02T16:22:28.878Z,32.14
2018-08-02T16:24:57.274Z,31.92
2018-08-02T16:27:29.162Z,31.79
2018-08-02T16:29:58.151Z,31.68
2018-08-02T16:32:27.554Z,31.35
2018-08-02T16:34:57.289Z,31.24
2018-08-02T16:37:25.896Z,31.16
2018-08-02T16:39:55.183Z,31.06
2018-08-02T16:42:24.402Z,31.07
2018-08-02T16:44:52.733Z,30.96
2018-08-02T16:47:21.081Z,30.99
2018-08-02T16:49:50.313Z,30.96
2018-08-02T16:52:18.678Z,30.86
2018-08-02T16:54:47.018Z,30.75
2018-08-02T16:57:15.383Z,30.72
2018-08-02T16:59:43.742Z,30.59
2018-08-02T17:02:13.005Z,30.53
2018-08-02T17:04:41.372Z,30.57
2018-08-02T17:07:09.909Z,30.42
2018-08-02T17:09:38.286Z,30.41
2018-08-02T17:12:08.774Z,30.24
2018-08-02T17:14:38.213Z,30.15
2018-08-02T17:17:07.470Z,30.12
2018-08-02T17:19:38.185Z,30.03
2018-08-02T17:22:07.043Z,30.01
2018-08-02T17:24:36.189Z,29.91
2018-08-02T17:27:05.716Z,29.80
2018-08-02T17:29:35.017Z,29.72
2018-08-02T17:32:04.983Z,29.53
2018-08-02T17:34:35.759Z,29.50
2018-08-02T17:37:05.321Z,29.50
2018-08-02T17:39:35.417Z,29.35
2018-08-02T17:42:05.378Z,29.32
2018-08-02T17:44:35.319Z,29.21
2018-08-02T17:47:06.172Z,29.12
2018-08-02T17:49:36.523Z,29.02
2018-08-02T17:52:04.907Z,28.95
2018-08-02T17:54:35.280Z,28.82
2018-08-02T17:57:04.422Z,28.71
2018-08-02T17:59:34.679Z,28.60
2018-08-02T18:02:03.058Z,28.54
2018-08-02T18:04:31.429Z,28.43
2018-08-02T18:07:01.400Z,28.46
2018-08-02T18:09:32.049Z,28.38
2018-08-02T18:12:00.448Z,28.41
2018-08-02T18:14:28.966Z,28.14
2018-08-02T18:16:57.793Z,28.11
2018-08-02T18:19:27.706Z,28.03
2018-08-02T18:21:57.383Z,27.97
2018-08-02T18:24:27.281Z,27.76
2018-08-02T18:26:57.501Z,27.61
2018-08-02T18:29:26.749Z,27.49
2018-08-02T18:31:56.455Z,27.37
2018-08-02T18:34:26.993Z,27.27
2018-08-02T18:36:55.346Z,27.17
2018-08-02T18:39:23.723Z,26.97
2018-08-02T18:41:52.059Z,26.86
2018-08-02T18:44:21.442Z,26.77
2018-08-02T18:46:50.831Z,26.62
2018-08-02T18:49:19.158Z,26.52
2018-08-02T18:51:47.507Z,26.38
2018-08-02T18:54:16.780Z,26.37
2018-08-02T18:56:45.120Z,26.62
2018-08-02T18:59:14.425Z,26.49
2018-08-02T19:01:44.020Z,26.31
2018-08-02T19:04:12.401Z,26.13
2018-08-02T19:06:40.748Z,26.04
2018-08-02T19:09:09.618Z,25.93
2018-08-02T19:11:38.126Z,25.86
2018-08-02T19:14:07.474Z,25.88
2018-08-02T19:16:38.126Z,26.15
2018-08-02T19:19:06.559Z,26.04
2018-08-02T19:21:35.038Z,25.87
2018-08-02T19:24:03.985Z,26.02
2018-08-02T19:26:33.372Z,25.90
2018-08-02T19:29:01.734Z,25.91
2018-08-02T19:31:30.138Z,25.68
2018-08-02T19:33:59.241Z,25.79
2018-08-02T19:36:29.542Z,25.81
2018-08-02T19:38:59.801Z,25.76
2018-08-02T19:41:29.270Z,25.60
2018-08-02T19:43:58.297Z,25.64
2018-08-02T19:46:27.685Z,25.48
2018-08-02T19:48:56.128Z,25.41
2018-08-02T19:51:24.514Z,25.27
2018-08-02T19:53:52.953Z,25.30
2018-08-02T19:56:21.427Z,25.20
2018-08-02T19:58:49.834Z,25.14
2018-08-02T20:01:18.190Z,24.99
2018-08-02T20:03:47.235Z,24.82
2018-08-02T20:06:15.915Z,24.97
2018-08-02T20:08:44.219Z,24.89
2018-08-02T20:11:13.559Z,24.87
2018-08-02T20:13:44.180Z,24.67
2018-08-02T20:16:14.002Z,24.87
2018-08-02T20:18:42.387Z,24.94
2018-08-02T20:21:10.872Z,24.84
2018-08-02T20:23:39.255Z,24.87
2018-08-02T20:26:07.606Z,24.72
2018-08-02T20:28:36.662Z,24.64
2018-08-02T20:31:06.919Z,24.58
2018-08-02T20:33:35.939Z,24.41
2018-08-02T20:36:05.898Z,24.31
2018-08-02T20:38:34.848Z,24.43
2018-08-02T20:41:03.211Z,24.33
2018-08-02T20:43:32.489Z,24.30
2018-08-02T20:46:01.722Z,24.25
2018-08-02T20:48:30.887Z,24.16
2018-08-02T20:51:01.149Z,24.10
2018-08-02T20:53:31.719Z,23.89
2018-08-02T20:56:00.075Z,23.79
2018-08-02T20:58:28.426Z,23.77
2018-08-02T21:00:57.397Z,23.87
2018-08-02T21:03:25.766Z,23.76
2018-08-02T21:05:54.379Z,23.70
2018-08-02T21:08:22.948Z,23.63
2018-08-02T21:10:51.562Z,23.47
2018-08-02T21:13:20.799Z,23.30
2018-08-02T21:15:49.215Z,23.27
2018-08-02T21:18:17.816Z,23.22
2018-08-02T21:20:46.449Z,23.17
2018-08-02T21:23:14.828Z,23.07
2018-08-02T21:25:43.186Z,22.99
2018-08-02T21:28:11.887Z,22.98
2018-08-02T21:30:40.250Z,22.94
2018-08-02T21:33:08.602Z,22.86
2018-08-02T21:35:37.377Z,22.84
2018-08-02T21:38:06.887Z,22.73
2018-08-02T21:40:36.254Z,22.63
2018-08-02T21:43:05.382Z,22.56
2018-08-02T21:45:36.955Z,22.49
2018-08-02T21:48:06.355Z,22.40
2018-08-02T21:50:36.960Z,22.31
2018-08-02T21:53:07.587Z,22.26
2018-08-02T21:55:36.951Z,22.38
2018-08-02T21:58:07.800Z,22.26
2018-08-02T22:00:38.265Z,22.20
2018-08-02T22:03:07.686Z,22.37
2018-08-02T22:05:39.510Z,22.20
2018-08-02T22:08:09.010Z,22.16
2018-08-02T22:10:37.444Z,22.18
2018-08-02T22:15:52.377Z,22.07
2018-08-02T22:18:21.587Z,22.03
2018-08-02T22:20:50.985Z,22.04
2018-08-02T22:23:19.762Z,21.95
2018-08-02T22:25:48.979Z,21.97
2018-08-02T22:28:17.325Z,21.98
2018-08-02T22:30:45.686Z,22.14
2018-08-02T22:33:14.582Z,22.09
2018-08-02T22:35:42.959Z,22.10
2018-08-02T22:38:11.541Z,22.10
2018-08-02T22:40:39.905Z,21.97
2018-08-02T22:43:08.245Z,22.04
2018-08-02T22:45:37.104Z,21.90
2018-08-02T22:48:06.182Z,21.96
2018-08-02T22:50:34.993Z,21.96
2018-08-02T22:53:03.339Z,21.87
2018-08-02T22:55:31.718Z,21.78
2018-08-02T22:58:01.099Z,21.67
2018-08-02T23:00:30.086Z,21.67
2018-08-02T23:03:00.109Z,21.69
2018-08-02T23:05:29.336Z,21.63
2018-08-02T23:07:58.562Z,21.54
2018-08-02T23:10:26.940Z,21.60
2018-08-02T23:12:55.279Z,21.70
2018-08-02T23:15:23.617Z,21.60
2018-08-02T23:17:51.953Z,21.56
2018-08-02T23:20:20.294Z,21.62
2018-08-02T23:22:51.282Z,21.67
2018-08-02T23:25:20.394Z,21.66
2018-08-02T23:27:48.772Z,21.66
2018-08-02T23:30:18.121Z,21.60
2018-08-02T23:32:46.465Z,21.73
2018-08-02T23:35:14.806Z,21.81
2018-08-02T23:37:43.136Z,21.62
2018-08-02T23:40:11.473Z,21.51
2018-08-02T23:42:39.858Z,21.61
2018-08-02T23:45:08.273Z,21.65
2018-08-02T23:47:37.363Z,21.61
2018-08-02T23:50:07.002Z,21.71
2018-08-02T23:52:36.305Z,21.84
2018-08-02T23:55:07.252Z,21.78
2018-08-02T23:57:36.983Z,21.65
